Pagrindinis puslapis
METAR-TAF:

METAR-TAF

Oro uostai :

Reno-Tahoe International Airport

Rynas, Nevada, Jungtinės Amerikos Valstijos

platuma: 39-29-02N, ilguma: 119-46-16W, Aukštis: 1345 m

Dabartinis oras

Ataskaita buvo paskelbta 40 minutes, ne 22:55 UTC
Vėjas 9 kt iš Rytų/Pietryčių
Temperatūra 8°C
Drėgmė 29%
Slėgis 1023 hPa
Matomumas: 16.1 km
Giedras dangus

METAR: KRNO 252255Z 11009KT 10SM CLR 08/M09 A3020 RMK AO2 SLP231 T00831094

Laikas: 15:35 (23:35 UTC)

Prognozė

Ataskaita buvo paskelbta 6 valandos ir 15 minutes, ne 17:20 UTC
Prognozė galioja nuo 25 metu 18 UTC su 26 metu 18 UTC
Vėjas 3 kt nuo kintamojo kryptimis
Matomumas: 10 km
Giedras dangus
Nuo 25 metu 2000 UTC
Vėjas 8 kt iš Rytų
Matomumas: 10 km
Giedras dangus
Nuo 26 metu 0200 UTC
Vėjas 4 kt nuo kintamojo kryptimis
Matomumas: 10 km
Giedras dangus

TAF: KRNO 251720Z 2518/2618 VRB03KT P6SM SKC FM252000 09008KT P6SM SKC FM260200 VRB04KT P6SM SKC

Orai ataskaitas ir orų prognozės (METAR, TAF).

turimą stotys yra geltonos ir raudonos taškus žemėlapyje.

Perkelti pele per norėdami pamatyti stoties vardą.

Tada spustelėkite, norėdami matyti oro stebėjimo ir prognozės.

Norėdami pakeisti žemėlapį: spustelėkite ant žalios mygtukų su juodo kryžiaus žemyn,; žalią mygtuką su brūkšneliu, jei norite nutolinti; arba žalių rodyklių gretimoms žemėlapius.


METAR-TAF: